createdAt,value
2022-08-14T00:01:31.801Z,6.13
2022-08-14T00:03:58.541Z,6.47
2022-08-14T00:06:28.558Z,6.28
2022-08-14T00:08:58.929Z,6.00
2022-08-14T00:11:32.046Z,6.05
2022-08-14T00:14:02.022Z,6.50
2022-08-14T00:16:41.561Z,6.53
2022-08-14T00:19:18.694Z,6.47
2022-08-14T00:21:47.492Z,6.63
2022-08-14T00:24:28.422Z,6.68
2022-08-14T00:26:58.303Z,6.00
2022-08-14T00:29:30.640Z,6.35
2022-08-14T00:31:59.991Z,6.10
2022-08-14T00:34:37.329Z,5.97
2022-08-14T00:37:13.369Z,6.00
2022-08-14T00:39:40.509Z,6.13
2022-08-14T00:42:21.321Z,6.05
2022-08-14T00:44:55.551Z,5.63
2022-08-14T00:47:24.725Z,5.82
2022-08-14T00:49:56.246Z,5.88
2022-08-14T00:54:57.748Z,6.22
2022-08-14T00:57:28.448Z,6.22
2022-08-14T00:59:57.319Z,6.30
2022-08-14T01:02:24.821Z,6.70
2022-08-14T01:04:58.313Z,6.53
2022-08-14T01:07:28.482Z,6.55
2022-08-14T01:10:06.190Z,6.75
2022-08-14T01:12:33.817Z,6.45
2022-08-14T01:15:09.411Z,6.40
2022-08-14T01:17:59.828Z,6.40
2022-08-14T01:20:46.550Z,5.63
2022-08-14T01:23:18.735Z,6.22
2022-08-14T01:25:51.212Z,6.57
2022-08-14T01:28:34.467Z,5.82
2022-08-14T01:31:14.329Z,6.38
2022-08-14T01:35:15.758Z,6.10
2022-08-14T01:36:36.727Z,6.40
2022-08-14T01:39:13.178Z,6.82
2022-08-14T01:41:42.478Z,6.32
2022-08-14T01:44:31.944Z,6.88
2022-08-14T01:47:05.850Z,6.60
2022-08-14T01:49:35.506Z,6.60
2022-08-14T01:52:03.658Z,6.20
2022-08-14T01:54:38.002Z,6.63
2022-08-14T01:57:09.159Z,6.40
2022-08-14T01:59:38.578Z,6.43
2022-08-14T02:02:19.107Z,6.60
2022-08-14T02:04:56.633Z,7.18
2022-08-14T02:07:34.224Z,6.65
2022-08-14T02:10:15.799Z,6.53
2022-08-14T02:12:48.789Z,6.25
2022-08-14T02:15:18.711Z,6.85
2022-08-14T02:17:45.599Z,6.80
2022-08-14T02:20:17.832Z,5.95
2022-08-14T02:22:52.049Z,6.60
2022-08-14T02:25:21.998Z,6.70
2022-08-14T02:28:25.300Z,6.30
2022-08-14T02:30:38.509Z,6.68
2022-08-14T02:33:06.928Z,6.23
2022-08-14T02:35:33.871Z,6.70
2022-08-14T02:38:08.012Z,6.55
2022-08-14T02:40:39.153Z,6.93
2022-08-14T02:43:07.720Z,6.70
2022-08-14T02:45:38.901Z,6.20
2022-08-14T02:49:03.483Z,6.97
2022-08-14T02:51:01.112Z,6.05
2022-08-14T02:53:31.706Z,6.43
2022-08-14T02:56:03.213Z,6.45
2022-08-14T02:58:51.295Z,6.60
2022-08-14T03:01:21.293Z,6.03
2022-08-14T03:03:51.917Z,6.95
2022-08-14T03:06:48.866Z,6.97
2022-08-14T03:09:12.782Z,6.40
2022-08-14T03:11:39.806Z,6.75
2022-08-14T03:14:12.681Z,6.88
2022-08-14T03:16:43.337Z,6.80
2022-08-14T03:19:11.815Z,6.75
2022-08-14T03:21:39.762Z,7.20
2022-08-14T03:24:08.158Z,6.97
2022-08-14T03:26:49.747Z,6.80
2022-08-14T03:29:24.573Z,7.05
2022-08-14T03:31:52.941Z,7.00
2022-08-14T03:34:24.641Z,6.78
2022-08-14T03:37:37.719Z,6.80
2022-08-14T03:39:57.255Z,7.18
2022-08-14T03:42:25.127Z,7.10
2022-08-14T03:45:26.067Z,6.38
2022-08-14T03:47:46.302Z,7.07
2022-08-14T03:50:27.525Z,6.68
2022-08-14T03:52:55.806Z,7.05
2022-08-14T03:55:24.141Z,7.27
2022-08-14T03:57:51.061Z,7.30
2022-08-14T04:00:43.267Z,6.95
2022-08-14T04:03:09.525Z,7.38
2022-08-14T04:05:48.495Z,7.13
2022-08-14T04:08:29.087Z,7.78
2022-08-14T04:10:59.357Z,8.02
2022-08-14T04:13:31.886Z,7.07
2022-08-14T04:16:10.325Z,7.22
2022-08-14T04:18:45.834Z,7.15
2022-08-14T04:21:17.025Z,7.60
2022-08-14T04:23:45.559Z,7.35
2022-08-14T04:26:41.974Z,7.93
2022-08-14T04:29:14.341Z,7.63
2022-08-14T04:33:00.755Z,7.57
2022-08-14T04:34:29.431Z,7.75
2022-08-14T04:37:22.167Z,8.00
2022-08-14T04:40:10.530Z,7.82
2022-08-14T04:42:56.152Z,8.45
2022-08-14T04:45:24.091Z,7.68
2022-08-14T04:48:10.930Z,7.68
2022-08-14T04:51:00.716Z,8.50
2022-08-14T04:53:34.743Z,8.57
2022-08-14T04:56:03.392Z,8.63
2022-08-14T04:58:34.472Z,9.13
2022-08-14T05:01:06.217Z,8.38
2022-08-14T05:03:39.832Z,8.60
2022-08-14T05:06:37.614Z,8.40
2022-08-14T05:08:57.140Z,8.02
2022-08-14T05:11:27.329Z,8.40
2022-08-14T05:14:16.795Z,8.27
2022-08-14T05:16:44.147Z,8.35
2022-08-14T05:19:17.784Z,8.10
2022-08-14T05:21:59.782Z,8.68
2022-08-14T05:24:28.967Z,7.97
2022-08-14T05:26:55.931Z,8.02
2022-08-14T05:29:23.377Z,8.63
2022-08-14T05:31:50.584Z,7.97
2022-08-14T05:34:28.678Z,7.78
2022-08-14T05:37:01.891Z,8.32
2022-08-14T05:39:29.466Z,8.40
2022-08-14T05:41:56.743Z,8.23
2022-08-14T05:44:27.874Z,8.88
2022-08-14T05:46:57.285Z,8.65
2022-08-14T05:49:26.080Z,8.73
2022-08-14T05:52:01.699Z,8.77
2022-08-14T05:54:35.183Z,8.65
2022-08-14T05:57:04.314Z,9.25
2022-08-14T05:59:39.201Z,8.40
2022-08-14T06:02:07.848Z,8.65
2022-08-14T06:04:37.481Z,9.02
2022-08-14T06:07:04.432Z,9.13
2022-08-14T06:09:35.986Z,8.48
2022-08-14T06:12:08.626Z,9.50
2022-08-14T06:14:36.632Z,8.85
2022-08-14T06:17:04.191Z,9.43
2022-08-14T06:19:31.143Z,9.20
2022-08-14T06:21:58.406Z,9.68
2022-08-14T06:24:26.217Z,8.93
2022-08-14T06:26:56.625Z,9.38
2022-08-14T06:29:32.062Z,8.60
2022-08-14T06:32:36.740Z,8.40
2022-08-14T06:35:11.245Z,9.38
2022-08-14T06:37:51.831Z,8.65
2022-08-14T06:40:28.639Z,8.45
2022-08-14T06:43:00.415Z,8.57
2022-08-14T06:45:38.604Z,8.52
2022-08-14T06:48:14.252Z,7.63
2022-08-14T06:50:45.440Z,8.63
2022-08-14T06:53:14.696Z,7.60
2022-08-14T06:55:58.467Z,7.40
2022-08-14T06:58:30.863Z,7.55
2022-08-14T07:01:25.094Z,7.55
2022-08-14T07:04:22.796Z,7.05
2022-08-14T07:06:50.256Z,7.20
2022-08-14T07:09:22.670Z,7.00
2022-08-14T07:11:51.620Z,7.05
2022-08-14T07:14:18.389Z,6.70
2022-08-14T07:16:45.115Z,6.60
2022-08-14T07:19:12.181Z,6.90
2022-08-14T07:21:39.583Z,6.75
2022-08-14T07:24:09.667Z,6.40
2022-08-14T07:26:49.072Z,6.72
2022-08-14T07:29:17.503Z,6.78
2022-08-14T07:31:45.203Z,6.68
2022-08-14T07:34:13.644Z,6.35
2022-08-14T07:37:01.106Z,6.47
2022-08-14T07:39:28.207Z,7.03
2022-08-14T07:41:54.972Z,6.40
2022-08-14T07:44:29.243Z,7.10
2022-08-14T07:47:02.483Z,6.15
2022-08-14T07:49:32.462Z,6.40
2022-08-14T07:51:59.942Z,6.22
2022-08-14T07:54:30.410Z,6.20
2022-08-14T07:57:11.803Z,6.22
2022-08-14T07:59:44.141Z,6.35
2022-08-14T08:02:19.516Z,6.30
2022-08-14T08:04:52.934Z,6.03
2022-08-14T08:07:21.705Z,5.85
2022-08-14T08:09:54.334Z,6.63
2022-08-14T08:12:24.920Z,6.03
2022-08-14T08:15:02.980Z,5.90
2022-08-14T08:17:38.811Z,6.00
2022-08-14T08:20:16.058Z,5.78
2022-08-14T08:22:55.685Z,6.07
2022-08-14T08:25:28.489Z,6.07
2022-08-14T08:27:59.266Z,6.30
2022-08-14T08:30:27.601Z,6.85
2022-08-14T08:32:57.969Z,6.40
2022-08-14T08:35:46.130Z,5.57
2022-08-14T08:39:14.533Z,5.47
2022-08-14T08:41:04.725Z,6.00
2022-08-14T08:43:36.064Z,5.43
2022-08-14T08:46:21.263Z,5.95
2022-08-14T08:51:34.481Z,5.90
2022-08-14T08:54:13.116Z,6.15
2022-08-14T08:56:49.984Z,5.95
2022-08-14T08:59:31.728Z,6.03
2022-08-14T09:02:09.224Z,5.88
2022-08-14T09:04:53.752Z,6.05
2022-08-14T09:07:27.098Z,6.30
2022-08-14T09:10:00.018Z,6.50
2022-08-14T09:12:32.129Z,6.05
2022-08-14T09:15:11.424Z,6.40
2022-08-14T09:17:43.061Z,5.80
2022-08-14T09:20:12.374Z,6.18
2022-08-14T09:22:48.034Z,5.93
2022-08-14T09:25:16.473Z,6.10
2022-08-14T09:27:44.434Z,6.10
2022-08-14T09:30:33.789Z,6.07
2022-08-14T09:33:10.617Z,5.60
2022-08-14T09:35:56.558Z,6.17
2022-08-14T09:38:35.867Z,6.07
2022-08-14T09:42:21.717Z,5.90
2022-08-14T09:44:39.053Z,5.35
2022-08-14T09:47:10.591Z,5.35
2022-08-14T09:49:43.198Z,5.60
2022-08-14T09:52:33.370Z,4.97
2022-08-14T09:55:01.402Z,5.20
2022-08-14T09:57:31.438Z,5.10
2022-08-14T09:59:58.594Z,4.95
2022-08-14T10:02:31.528Z,5.00
2022-08-14T10:05:11.373Z,4.88
2022-08-14T10:07:53.438Z,5.18
2022-08-14T10:10:34.412Z,5.18
2022-08-14T10:13:03.468Z,5.05
2022-08-14T10:15:33.605Z,4.95
2022-08-14T10:18:17.445Z,4.75
2022-08-14T10:20:57.699Z,5.25
2022-08-14T10:23:27.674Z,4.78
2022-08-14T10:26:06.418Z,5.10
2022-08-14T10:29:22.641Z,5.50
2022-08-14T10:31:59.112Z,4.97
2022-08-14T10:34:36.535Z,5.15
2022-08-14T10:37:14.734Z,5.00
2022-08-14T10:39:51.366Z,5.00
2022-08-14T10:42:41.171Z,4.32
2022-08-14T10:45:34.042Z,5.05
2022-08-14T10:48:34.441Z,5.10
2022-08-14T10:51:01.115Z,4.60
2022-08-14T10:53:29.907Z,4.75
2022-08-14T10:56:03.726Z,4.88
2022-08-14T10:58:34.222Z,4.75
2022-08-14T11:01:05.419Z,4.40
2022-08-14T11:03:56.206Z,5.00
2022-08-14T11:06:24.527Z,4.90
2022-08-14T11:08:52.924Z,4.65
2022-08-14T11:11:22.861Z,5.22
2022-08-14T11:13:50.643Z,5.03
2022-08-14T11:16:18.230Z,4.93
2022-08-14T11:18:51.733Z,4.28
2022-08-14T11:21:23.102Z,4.30
2022-08-14T11:23:53.450Z,4.28
2022-08-14T11:26:22.640Z,3.97
2022-08-14T11:28:52.181Z,4.25
2022-08-14T11:31:26.156Z,4.22
2022-08-14T11:34:05.726Z,3.80
2022-08-14T11:37:04.425Z,3.67
2022-08-14T11:39:34.901Z,4.10
2022-08-14T11:42:56.327Z,4.15
2022-08-14T11:45:00.236Z,3.60
2022-08-14T11:47:35.161Z,3.50
2022-08-14T11:50:25.182Z,3.58
2022-08-14T11:53:04.430Z,3.50
2022-08-14T11:55:38.038Z,3.40
2022-08-14T11:58:11.049Z,3.20
2022-08-14T12:01:04.094Z,2.95
2022-08-14T12:03:52.169Z,3.25
2022-08-14T12:06:29.229Z,3.55
2022-08-14T12:09:08.479Z,3.05
2022-08-14T12:11:44.132Z,3.50
2022-08-14T12:14:31.157Z,3.63
2022-08-14T12:17:05.032Z,2.90
2022-08-14T12:19:42.978Z,3.03
2022-08-14T12:22:12.313Z,3.30
2022-08-14T12:24:52.538Z,3.95
2022-08-14T12:27:19.567Z,3.15
2022-08-14T12:29:53.475Z,3.10
2022-08-14T12:32:20.200Z,2.90
2022-08-14T12:34:54.366Z,3.20
2022-08-14T12:37:30.987Z,3.08
2022-08-14T12:40:10.010Z,3.25
2022-08-14T12:42:41.815Z,3.28
2022-08-14T12:45:17.252Z,3.28
2022-08-14T12:47:44.349Z,3.20
2022-08-14T12:50:18.186Z,3.10
2022-08-14T12:53:01.986Z,3.13
2022-08-14T12:56:17.908Z,3.25
2022-08-14T12:58:48.246Z,3.72
2022-08-14T13:01:28.848Z,3.42
2022-08-14T13:04:14.828Z,3.35
2022-08-14T13:06:44.725Z,4.15
2022-08-14T13:09:19.008Z,3.33
2022-08-14T13:11:58.873Z,3.42
2022-08-14T13:14:41.728Z,3.72
2022-08-14T13:19:40.490Z,3.40
2022-08-14T13:22:10.148Z,3.70
2022-08-14T13:24:47.697Z,3.33
2022-08-14T13:27:14.857Z,3.35
2022-08-14T13:29:47.111Z,3.20
2022-08-14T13:32:15.038Z,3.10
2022-08-14T13:34:43.721Z,3.20
2022-08-14T13:37:17.319Z,3.08
2022-08-14T13:39:57.075Z,3.30
2022-08-14T13:42:30.943Z,3.38
2022-08-14T13:45:01.304Z,3.42
2022-08-14T13:47:29.809Z,3.33
2022-08-14T13:50:00.497Z,3.25
2022-08-14T13:52:51.499Z,3.47
2022-08-14T13:55:28.057Z,3.28
2022-08-14T13:58:04.119Z,3.30
2022-08-14T14:00:53.322Z,3.10
2022-08-14T14:03:23.461Z,3.40
2022-08-14T14:05:54.237Z,3.10
2022-08-14T14:08:43.173Z,3.30
2022-08-14T14:11:11.358Z,3.08
2022-08-14T14:13:44.766Z,3.10
2022-08-14T14:16:14.899Z,3.28
2022-08-14T14:18:43.846Z,2.80
2022-08-14T14:21:13.514Z,3.03
2022-08-14T14:23:44.446Z,3.35
2022-08-14T14:26:19.990Z,3.50
2022-08-14T14:28:56.792Z,3.63
2022-08-14T14:31:30.229Z,3.40
2022-08-14T14:34:07.577Z,3.47
2022-08-14T14:36:50.051Z,3.72
2022-08-14T14:39:22.135Z,3.42
2022-08-14T14:41:53.254Z,3.60
2022-08-14T14:44:32.058Z,3.70
2022-08-14T14:46:59.556Z,3.72
2022-08-14T14:49:41.565Z,3.95
2022-08-14T14:52:26.537Z,3.53
2022-08-14T14:54:56.732Z,3.90
2022-08-14T15:00:01.789Z,3.75
2022-08-14T15:02:41.383Z,3.50
2022-08-14T15:05:10.718Z,3.42
2022-08-14T15:07:39.505Z,3.60
2022-08-14T15:10:27.415Z,3.70
2022-08-14T15:15:27.329Z,4.15
2022-08-14T15:17:54.587Z,3.78
2022-08-14T15:20:31.060Z,4.10
2022-08-14T15:23:01.098Z,3.85
2022-08-14T15:25:39.962Z,3.70
2022-08-14T15:28:11.580Z,3.60
2022-08-14T15:30:41.110Z,3.83
2022-08-14T15:33:08.832Z,3.80
2022-08-14T15:35:35.739Z,3.65
2022-08-14T15:38:11.645Z,4.00
2022-08-14T15:40:44.249Z,3.72
2022-08-14T15:43:18.733Z,4.20
2022-08-14T15:45:46.027Z,4.05
2022-08-14T15:48:22.029Z,3.80
2022-08-14T15:50:49.276Z,4.47
2022-08-14T15:53:17.657Z,4.35
2022-08-14T15:55:44.547Z,4.03
2022-08-14T15:58:14.591Z,3.85
2022-08-14T16:01:00.137Z,3.95
2022-08-14T16:03:36.441Z,3.83
2022-08-14T16:06:10.895Z,4.40
2022-08-14T16:08:43.782Z,4.18
2022-08-14T16:11:12.310Z,4.47
2022-08-14T16:13:44.533Z,4.10
2022-08-14T16:16:47.163Z,4.30
2022-08-14T16:19:09.509Z,4.15
2022-08-14T16:21:39.667Z,4.40
2022-08-14T16:24:06.778Z,4.45
2022-08-14T16:26:34.790Z,4.28
2022-08-14T16:29:05.294Z,3.97
2022-08-14T16:31:36.282Z,4.10
2022-08-14T16:34:43.687Z,4.05
2022-08-14T16:36:51.387Z,4.10
2022-08-14T16:39:18.304Z,4.50
2022-08-14T16:41:52.068Z,4.00
2022-08-14T16:44:22.163Z,4.00
2022-08-14T16:47:01.298Z,4.05
2022-08-14T16:50:03.059Z,4.20
2022-08-14T16:52:26.082Z,4.07
2022-08-14T16:55:05.043Z,4.20
2022-08-14T16:57:34.104Z,4.07
2022-08-14T17:00:07.083Z,4.00
2022-08-14T17:02:46.406Z,4.00
2022-08-14T17:05:24.737Z,4.00
2022-08-14T17:08:03.731Z,4.30
2022-08-14T17:10:50.348Z,4.32
2022-08-14T17:13:20.481Z,4.20
2022-08-14T17:16:24.662Z,4.22
2022-08-14T17:19:00.834Z,4.35
2022-08-14T17:21:31.825Z,4.25
2022-08-14T17:24:57.534Z,4.75
2022-08-14T17:26:55.853Z,4.43
2022-08-14T17:29:29.663Z,4.30
2022-08-14T17:32:27.991Z,4.35
2022-08-14T17:34:57.853Z,4.22
2022-08-14T17:37:35.699Z,4.50
2022-08-14T17:40:16.096Z,4.25
2022-08-14T17:42:53.320Z,4.72
2022-08-14T17:45:26.899Z,4.22
2022-08-14T17:47:59.261Z,4.22
2022-08-14T17:51:00.036Z,4.70
2022-08-14T17:53:30.528Z,5.07
2022-08-14T17:56:02.203Z,4.53
2022-08-14T17:58:41.685Z,4.65
2022-08-14T18:01:13.289Z,4.55
2022-08-14T18:03:46.423Z,4.72
2022-08-14T18:06:39.354Z,4.72
2022-08-14T18:09:25.247Z,4.60
2022-08-14T18:11:58.985Z,4.63
2022-08-14T18:14:32.193Z,5.10
2022-08-14T18:17:15.889Z,5.25
2022-08-14T18:19:44.656Z,4.95
2022-08-14T18:22:23.979Z,5.20
2022-08-14T18:24:59.015Z,5.20
2022-08-14T18:27:41.638Z,5.90
2022-08-14T18:32:59.090Z,5.82
2022-08-14T18:35:59.980Z,5.38
2022-08-14T18:38:43.076Z,6.07
2022-08-14T18:41:37.241Z,5.90
2022-08-14T18:44:10.296Z,6.10
2022-08-14T18:47:10.128Z,5.72
2022-08-14T18:50:00.760Z,6.05
2022-08-14T18:52:33.899Z,6.38
2022-08-14T18:55:25.453Z,6.07
2022-08-14T18:57:58.324Z,6.82
2022-08-14T19:00:50.951Z,5.97
2022-08-14T19:03:18.389Z,6.35
2022-08-14T19:05:49.385Z,6.30
2022-08-14T19:08:22.149Z,6.00
2022-08-14T19:10:53.182Z,6.35
2022-08-14T19:13:48.186Z,5.60
2022-08-14T19:16:17.075Z,5.57
2022-08-14T19:18:54.388Z,6.00
2022-08-14T19:21:43.498Z,5.90
2022-08-14T19:24:29.162Z,5.75
2022-08-14T19:27:22.918Z,6.10
2022-08-14T19:30:19.351Z,6.50
2022-08-14T19:32:51.668Z,5.78
2022-08-14T19:35:49.422Z,6.32
2022-08-14T19:38:53.354Z,5.57
2022-08-14T19:41:35.472Z,6.43
2022-08-14T19:44:13.063Z,6.07
2022-08-14T19:47:02.742Z,6.15
2022-08-14T19:50:24.640Z,6.38
2022-08-14T19:52:29.829Z,6.15
2022-08-14T19:54:58.604Z,6.38
2022-08-14T19:57:29.156Z,5.97
2022-08-14T20:00:29.331Z,6.22
2022-08-14T20:03:12.011Z,5.80
2022-08-14T20:05:45.950Z,6.03
2022-08-14T20:10:57.990Z,6.28
2022-08-14T20:11:20.652Z,6.30
2022-08-14T20:14:01.718Z,6.63
2022-08-14T20:16:32.263Z,6.70
2022-08-14T20:19:23.702Z,6.15
2022-08-14T20:22:00.702Z,6.05
2022-08-14T20:24:43.941Z,6.25
2022-08-14T20:27:33.280Z,6.20
2022-08-14T20:30:35.347Z,6.60
2022-08-14T20:33:08.022Z,7.00
2022-08-14T20:35:43.666Z,6.70
2022-08-14T20:38:30.438Z,6.22
2022-08-14T20:41:06.628Z,6.25
2022-08-14T20:43:59.546Z,6.82
2022-08-14T20:46:39.021Z,7.13
2022-08-14T20:49:08.883Z,7.22
2022-08-14T20:51:43.535Z,6.70
2022-08-14T20:54:34.271Z,6.53
2022-08-14T20:57:12.050Z,6.53
2022-08-14T20:59:47.082Z,6.93
2022-08-14T21:02:29.607Z,7.32
2022-08-14T21:05:02.537Z,6.93
2022-08-14T21:07:37.507Z,7.22
2022-08-14T21:10:33.908Z,6.82
2022-08-14T21:13:26.807Z,7.25
2022-08-14T21:15:44.532Z,7.00
2022-08-14T21:18:33.211Z,6.88
2022-08-14T21:21:07.684Z,6.82
2022-08-14T21:23:54.157Z,7.80
2022-08-14T21:26:50.458Z,6.75
2022-08-14T21:29:11.176Z,7.20
2022-08-14T21:31:38.937Z,6.75
2022-08-14T21:34:27.219Z,6.65
2022-08-14T21:36:54.448Z,7.20
2022-08-14T21:39:23.043Z,7.13
2022-08-14T21:41:59.028Z,7.00
2022-08-14T21:44:43.151Z,6.53
2022-08-14T21:47:12.878Z,6.50
2022-08-14T21:49:45.942Z,7.22
2022-08-14T21:52:51.764Z,7.30
2022-08-14T21:55:09.382Z,7.05
2022-08-14T21:57:55.905Z,7.03
2022-08-14T22:00:36.666Z,7.07
2022-08-14T22:03:12.842Z,6.80
2022-08-14T22:05:41.438Z,7.20
2022-08-14T22:08:11.989Z,7.60
2022-08-14T22:10:42.296Z,7.57
2022-08-14T22:13:11.270Z,7.28
2022-08-14T22:15:39.758Z,7.38
2022-08-14T22:18:19.811Z,7.07
2022-08-14T22:20:47.800Z,7.78
2022-08-14T22:23:20.284Z,7.20
2022-08-14T22:25:47.414Z,6.93
2022-08-14T22:28:20.311Z,7.15
2022-08-14T22:30:48.255Z,7.28
2022-08-14T22:33:26.257Z,7.60
2022-08-14T22:35:58.440Z,7.55
2022-08-14T22:38:35.517Z,7.22
2022-08-14T22:41:26.950Z,7.20
2022-08-14T22:43:55.495Z,7.10
2022-08-14T22:46:23.604Z,7.50
2022-08-14T22:48:51.468Z,7.55
2022-08-14T22:51:22.301Z,7.20
2022-08-14T22:53:52.640Z,7.35
2022-08-14T22:56:22.326Z,7.15
2022-08-14T22:58:58.474Z,6.80
2022-08-14T23:01:57.250Z,7.45
2022-08-14T23:04:34.305Z,7.85
2022-08-14T23:07:05.308Z,7.45
2022-08-14T23:09:38.189Z,7.47
2022-08-14T23:12:27.798Z,7.72
2022-08-14T23:14:56.138Z,7.45
2022-08-14T23:17:22.803Z,7.38
2022-08-14T23:19:49.543Z,6.90
2022-08-14T23:22:26.366Z,7.40
2022-08-14T23:24:57.718Z,7.32
2022-08-14T23:27:32.014Z,6.90
2022-08-14T23:30:31.498Z,7.70
2022-08-14T23:33:01.838Z,7.70
2022-08-14T23:35:28.799Z,7.20
2022-08-14T23:38:01.918Z,7.15
2022-08-14T23:40:30.430Z,7.10
2022-08-14T23:43:08.055Z,7.93
2022-08-14T23:45:39.256Z,7.20
2022-08-14T23:48:12.585Z,8.23
2022-08-14T23:50:44.263Z,7.80
2022-08-14T23:53:47.747Z,7.30
2022-08-14T23:56:30.373Z,7.93
2022-08-14T23:59:01.700Z,7.43
